createdAt,value
2023-05-13T00:00:00.214Z,38.67
2023-05-13T00:00:55.687Z,38.37
2023-05-13T00:01:51.226Z,38.45
2023-05-13T00:02:46.869Z,39.28
2023-05-13T00:03:42.540Z,38.77
2023-05-13T00:04:37.864Z,38.55
2023-05-13T00:05:33.406Z,38.67
2023-05-13T00:06:28.989Z,38.87
2023-05-13T00:07:24.499Z,38.97
2023-05-13T00:08:20.043Z,38.97
2023-05-13T00:09:15.578Z,39.07
2023-05-13T00:10:11.109Z,39.37
2023-05-13T00:11:06.655Z,39.78
2023-05-13T00:12:02.206Z,39.07
2023-05-13T00:12:57.748Z,38.87
2023-05-13T00:13:53.285Z,39.48
2023-05-13T00:14:48.851Z,38.67
2023-05-13T00:15:44.413Z,39.58
2023-05-13T00:16:39.982Z,39.68
2023-05-13T00:17:35.513Z,39.68
2023-05-13T00:18:31.154Z,39.39
2023-05-13T00:19:15.737Z,38.77
2023-05-13T00:20:11.261Z,38.79
2023-05-13T00:21:06.871Z,39.17
2023-05-13T00:22:02.371Z,39.29
2023-05-13T00:22:57.924Z,39.29
2023-05-13T00:23:53.502Z,39.58
2023-05-13T00:24:49.035Z,39.39
2023-05-13T00:25:44.576Z,40.20
2023-05-13T00:26:40.112Z,39.19
2023-05-13T00:27:35.660Z,39.29
2023-05-13T00:28:31.199Z,39.09
2023-05-13T00:29:26.729Z,39.59
2023-05-13T00:30:22.453Z,39.50
2023-05-13T00:31:17.852Z,40.40
2023-05-13T00:32:02.600Z,39.59
2023-05-13T00:32:58.074Z,40.20
2023-05-13T00:33:53.587Z,40.20
2023-05-13T00:34:49.140Z,39.79
2023-05-13T00:35:44.657Z,40.20
2023-05-13T00:36:40.193Z,39.59
2023-05-13T00:37:35.723Z,40.10
2023-05-13T00:38:31.264Z,39.59
2023-05-13T00:39:26.802Z,40.22
2023-05-13T00:40:22.633Z,39.79
2023-05-13T00:41:17.893Z,38.99
2023-05-13T00:42:13.434Z,40.01
2023-05-13T00:43:09.006Z,39.41
2023-05-13T00:44:04.522Z,39.01
2023-05-13T00:45:00.070Z,39.50
2023-05-13T00:45:44.768Z,39.11
2023-05-13T00:46:40.286Z,39.61
2023-05-13T00:47:35.863Z,40.01
2023-05-13T00:48:31.355Z,40.01
2023-05-13T00:49:26.892Z,39.41
2023-05-13T00:50:22.927Z,40.22
2023-05-13T00:51:17.985Z,39.31
2023-05-13T00:52:13.533Z,39.92
2023-05-13T00:53:09.057Z,39.51
2023-05-13T00:54:04.602Z,39.51
2023-05-13T00:55:00.195Z,40.12
2023-05-13T00:55:55.681Z,39.81
2023-05-13T00:56:51.230Z,39.72
2023-05-13T00:57:46.774Z,40.32
2023-05-13T00:58:42.310Z,40.23
2023-05-13T00:59:37.873Z,40.32
2023-05-13T01:00:33.416Z,40.12
2023-05-13T01:01:29.040Z,40.12
2023-05-13T01:02:24.611Z,39.73
2023-05-13T01:03:20.175Z,40.01
2023-05-13T01:04:15.608Z,39.94
2023-05-13T01:05:11.123Z,40.03
2023-05-13T01:06:06.677Z,39.94
2023-05-13T01:07:02.210Z,39.92
2023-05-13T01:07:57.753Z,40.14
2023-05-13T01:08:53.288Z,40.23
2023-05-13T01:09:48.825Z,40.34
2023-05-13T01:10:44.358Z,40.14
2023-05-13T01:11:39.909Z,39.94
2023-05-13T01:12:35.452Z,39.73
2023-05-13T01:13:30.996Z,39.94
2023-05-13T01:14:26.544Z,40.23
2023-05-13T01:15:22.083Z,39.53
2023-05-13T01:16:17.650Z,40.23
2023-05-13T01:17:13.166Z,40.34
2023-05-13T01:18:08.727Z,39.73
2023-05-13T01:19:04.333Z,39.94
2023-05-13T01:19:59.842Z,40.64
2023-05-13T01:20:55.380Z,40.44
2023-05-13T01:21:50.927Z,40.44
2023-05-13T01:22:46.470Z,40.23
2023-05-13T01:23:42.004Z,40.44
2023-05-13T01:24:37.586Z,40.54
2023-05-13T01:25:33.104Z,39.83
2023-05-13T01:26:28.648Z,39.94
2023-05-13T01:27:24.194Z,40.14
2023-05-13T01:28:19.720Z,40.23
2023-05-13T01:29:15.300Z,39.94
2023-05-13T01:30:10.832Z,40.14
2023-05-13T01:31:06.452Z,40.54
2023-05-13T01:32:01.910Z,40.34
2023-05-13T01:32:57.476Z,41.16
2023-05-13T01:33:53.009Z,40.36
2023-05-13T01:34:48.533Z,40.44
2023-05-13T01:35:44.078Z,40.25
2023-05-13T01:36:39.602Z,40.66
2023-05-13T01:37:35.169Z,40.36
2023-05-13T01:38:30.681Z,40.36
2023-05-13T01:39:26.225Z,41.56
2023-05-13T01:40:32.320Z,41.06
2023-05-13T01:41:17.296Z,40.36
2023-05-13T01:42:12.870Z,40.46
2023-05-13T01:43:08.401Z,41.27
2023-05-13T01:44:03.928Z,41.16
2023-05-13T01:44:59.465Z,40.46
2023-05-13T01:45:55.106Z,41.16
2023-05-13T01:46:50.751Z,40.96
2023-05-13T01:47:46.168Z,41.06
2023-05-13T01:48:41.665Z,40.58
2023-05-13T01:49:37.182Z,41.67
2023-05-13T01:50:32.730Z,40.28
2023-05-13T01:51:28.260Z,40.05
2023-05-13T01:52:23.810Z,40.78
2023-05-13T01:53:19.368Z,40.56
2023-05-13T01:54:14.927Z,41.06
2023-05-13T01:55:10.465Z,40.25
2023-05-13T01:56:06.009Z,40.46
2023-05-13T01:57:01.559Z,40.86
2023-05-13T01:57:57.101Z,41.36
2023-05-13T01:58:52.633Z,41.59
2023-05-13T01:59:48.176Z,41.27
2023-05-13T02:00:43.713Z,41.08
2023-05-13T02:01:28.386Z,41.59
2023-05-13T02:02:23.931Z,41.28
2023-05-13T02:03:19.549Z,40.86
2023-05-13T02:04:14.995Z,41.27
2023-05-13T02:05:10.529Z,40.17
2023-05-13T02:06:06.059Z,41.18
2023-05-13T02:07:01.608Z,40.98
2023-05-13T02:07:57.137Z,40.88
2023-05-13T02:08:52.702Z,41.18
2023-05-13T02:09:48.213Z,41.49
2023-05-13T02:10:43.763Z,41.28
2023-05-13T02:11:39.292Z,41.08
2023-05-13T02:12:34.876Z,41.49
2023-05-13T02:13:30.413Z,41.18
2023-05-13T02:14:25.999Z,40.98
2023-05-13T02:15:21.543Z,41.28
2023-05-13T02:16:17.095Z,41.28
2023-05-13T02:17:12.635Z,40.88
2023-05-13T02:18:08.220Z,41.08
2023-05-13T02:19:03.755Z,40.48
2023-05-13T02:19:59.264Z,41.30
2023-05-13T02:20:54.795Z,40.70
2023-05-13T02:21:50.328Z,40.80
2023-05-13T02:22:45.873Z,41.08
2023-05-13T02:23:41.406Z,41.69
2023-05-13T02:24:36.968Z,41.08
2023-05-13T02:25:32.489Z,40.80
2023-05-13T02:26:28.016Z,41.50
2023-05-13T02:27:23.562Z,41.20
2023-05-13T02:28:19.114Z,41.10
2023-05-13T02:29:14.644Z,40.59
2023-05-13T02:30:10.187Z,40.98
2023-05-13T02:31:05.732Z,40.70
2023-05-13T02:32:01.324Z,40.68
2023-05-13T02:32:56.845Z,41.50
2023-05-13T02:33:52.358Z,41.41
2023-05-13T02:34:47.912Z,40.90
2023-05-13T02:35:43.479Z,40.48
2023-05-13T02:36:38.995Z,41.00
2023-05-13T02:37:34.528Z,41.59
2023-05-13T02:38:30.068Z,41.81
2023-05-13T02:39:25.608Z,41.30
2023-05-13T02:40:21.453Z,41.30
2023-05-13T02:41:16.703Z,41.10
2023-05-13T02:42:12.241Z,40.80
2023-05-13T02:43:07.794Z,41.10
2023-05-13T02:44:03.345Z,41.30
2023-05-13T02:44:58.855Z,41.20
2023-05-13T02:45:54.423Z,41.10
2023-05-13T02:46:49.943Z,41.61
2023-05-13T02:47:45.494Z,41.10
2023-05-13T02:48:41.010Z,41.20
2023-05-13T02:49:36.535Z,40.70
2023-05-13T02:50:21.449Z,41.61
2023-05-13T02:51:16.738Z,41.91
2023-05-13T02:52:12.276Z,41.91
2023-05-13T02:53:07.821Z,41.41
2023-05-13T02:54:03.358Z,41.30
2023-05-13T02:54:58.927Z,41.81
2023-05-13T02:55:54.505Z,41.91
2023-05-13T02:56:49.990Z,41.81
2023-05-13T02:57:45.555Z,41.20
2023-05-13T02:58:41.096Z,42.01
2023-05-13T02:59:25.771Z,41.81
2023-05-13T03:00:21.423Z,41.93
2023-05-13T03:01:16.878Z,41.81
2023-05-13T03:02:12.416Z,41.93
2023-05-13T03:03:08.001Z,41.91
2023-05-13T03:04:03.463Z,41.83
2023-05-13T03:04:59.017Z,41.73
2023-05-13T03:05:54.600Z,41.30
2023-05-13T03:06:50.129Z,41.71
2023-05-13T03:07:45.664Z,41.93
2023-05-13T03:08:41.214Z,41.73
2023-05-13T03:09:36.764Z,41.52
2023-05-13T03:10:32.312Z,41.32
2023-05-13T03:11:27.866Z,41.73
2023-05-13T03:12:23.384Z,42.23
2023-05-13T03:13:18.930Z,41.32
2023-05-13T03:14:14.467Z,41.83
2023-05-13T03:15:10.000Z,42.33
2023-05-13T03:16:05.592Z,42.23
2023-05-13T03:17:01.098Z,42.43
2023-05-13T03:17:56.694Z,42.33
2023-05-13T03:18:52.257Z,41.73
2023-05-13T03:19:47.722Z,41.93
2023-05-13T03:20:43.264Z,42.33
2023-05-13T03:21:38.806Z,41.83
2023-05-13T03:22:34.378Z,41.52
2023-05-13T03:23:29.946Z,41.42
2023-05-13T03:24:25.466Z,41.93
2023-05-13T03:25:21.023Z,42.23
2023-05-13T03:26:16.595Z,41.83
2023-05-13T03:27:12.127Z,42.13
2023-05-13T03:28:07.642Z,41.93
2023-05-13T03:29:03.184Z,42.33
2023-05-13T03:29:58.720Z,42.54
2023-05-13T03:30:54.290Z,42.15
2023-05-13T03:31:49.914Z,42.55
2023-05-13T03:32:45.392Z,42.33
2023-05-13T03:33:40.910Z,42.15
2023-05-13T03:34:36.495Z,42.23
2023-05-13T03:35:31.996Z,42.05
2023-05-13T03:36:27.542Z,42.25
2023-05-13T03:37:23.106Z,42.15
2023-05-13T03:38:18.652Z,42.15
2023-05-13T03:39:14.193Z,42.46
2023-05-13T03:40:09.721Z,42.35
2023-05-13T03:41:05.259Z,42.55
2023-05-13T03:42:00.797Z,42.25
2023-05-13T03:42:56.358Z,41.95
2023-05-13T03:43:51.879Z,42.55
2023-05-13T03:44:47.426Z,42.76
2023-05-13T03:45:42.982Z,42.46
2023-05-13T03:46:38.530Z,41.95
2023-05-13T03:47:34.068Z,42.86
2023-05-13T03:48:29.695Z,42.15
2023-05-13T03:49:25.178Z,42.05
2023-05-13T03:50:21.029Z,42.46
2023-05-13T03:51:16.264Z,42.25
2023-05-13T03:52:11.795Z,43.06
2023-05-13T03:53:07.338Z,42.55
2023-05-13T03:54:02.870Z,42.76
2023-05-13T03:54:58.416Z,42.35
2023-05-13T03:55:53.970Z,42.66
2023-05-13T03:56:49.524Z,42.55
2023-05-13T03:57:45.073Z,42.76
2023-05-13T03:58:40.603Z,42.35
2023-05-13T03:59:36.131Z,42.88
2023-05-13T04:00:31.656Z,42.58
2023-05-13T04:01:27.203Z,42.66
2023-05-13T04:02:22.871Z,42.47
2023-05-13T04:03:18.369Z,42.37
2023-05-13T04:04:13.833Z,42.88
2023-05-13T04:05:09.480Z,42.68
2023-05-13T04:06:04.921Z,43.08
2023-05-13T04:07:00.462Z,43.18
2023-05-13T04:07:56.047Z,42.47
2023-05-13T04:08:51.595Z,43.08
2023-05-13T04:09:47.134Z,42.88
2023-05-13T04:10:42.688Z,42.78
2023-05-13T04:11:38.250Z,42.68
2023-05-13T04:12:33.810Z,43.38
2023-05-13T04:13:29.344Z,42.98
2023-05-13T04:14:24.957Z,42.68
2023-05-13T04:15:20.493Z,42.80
2023-05-13T04:16:16.084Z,42.78
2023-05-13T04:17:11.586Z,43.08
2023-05-13T04:17:56.301Z,43.08
2023-05-13T04:18:51.817Z,42.78
2023-05-13T04:19:47.551Z,43.18
2023-05-13T04:20:42.979Z,42.98
2023-05-13T04:21:38.533Z,42.68
2023-05-13T04:22:34.071Z,42.88
2023-05-13T04:23:29.626Z,42.68
2023-05-13T04:24:25.177Z,42.90
2023-05-13T04:25:20.711Z,42.98
2023-05-13T04:26:16.256Z,43.08
2023-05-13T04:27:11.822Z,43.79
2023-05-13T04:28:07.365Z,42.68
2023-05-13T04:29:02.916Z,43.00
2023-05-13T04:29:58.470Z,43.71
2023-05-13T04:30:43.121Z,42.69
2023-05-13T04:31:38.691Z,43.00
2023-05-13T04:32:23.332Z,42.69
2023-05-13T04:33:18.846Z,43.20
2023-05-13T04:34:14.397Z,42.69
2023-05-13T04:35:09.941Z,43.10
2023-05-13T04:36:05.484Z,42.69
2023-05-13T04:37:01.004Z,42.90
2023-05-13T04:37:56.540Z,43.20
2023-05-13T04:38:52.105Z,43.00
2023-05-13T04:39:47.650Z,43.41
2023-05-13T04:40:43.188Z,43.51
2023-05-13T04:41:38.723Z,43.61
2023-05-13T04:42:34.277Z,43.91
2023-05-13T04:43:29.818Z,43.41
2023-05-13T04:44:25.467Z,43.10
2023-05-13T04:45:21.019Z,43.30
2023-05-13T04:46:16.544Z,43.81
2023-05-13T04:47:12.071Z,44.21
2023-05-13T04:48:07.743Z,42.90
2023-05-13T04:49:03.142Z,43.30
2023-05-13T04:49:58.683Z,42.80
2023-05-13T04:50:54.234Z,43.30
2023-05-13T04:51:49.764Z,43.10
2023-05-13T04:52:45.309Z,43.41
2023-05-13T04:53:40.835Z,44.21
2023-05-13T04:54:36.405Z,44.21
2023-05-13T04:55:31.953Z,43.71
2023-05-13T04:56:27.485Z,44.21
2023-05-13T04:57:23.031Z,43.51
2023-05-13T04:58:18.594Z,44.01
2023-05-13T04:59:14.123Z,43.10
2023-05-13T05:00:09.676Z,43.30
2023-05-13T05:01:05.226Z,43.61
2023-05-13T05:02:00.826Z,43.41
2023-05-13T05:02:56.317Z,43.51
2023-05-13T05:03:51.864Z,43.91
2023-05-13T05:04:47.368Z,44.12
2023-05-13T05:05:42.906Z,43.51
2023-05-13T05:06:38.450Z,43.91
2023-05-13T05:07:33.984Z,43.20
2023-05-13T05:08:29.551Z,44.21
2023-05-13T05:09:25.056Z,43.61
2023-05-13T05:10:20.852Z,43.61
2023-05-13T05:11:16.142Z,44.12
2023-05-13T05:12:11.693Z,43.71
2023-05-13T05:13:07.238Z,44.32
2023-05-13T05:14:02.760Z,43.59
2023-05-13T05:14:58.317Z,43.30
2023-05-13T05:15:53.850Z,44.01
2023-05-13T05:16:49.474Z,43.81
2023-05-13T05:17:45.004Z,43.30
2023-05-13T05:18:40.605Z,44.20
2023-05-13T05:19:25.221Z,43.30
2023-05-13T05:20:20.952Z,43.38
2023-05-13T05:21:16.289Z,43.71
2023-05-13T05:22:11.829Z,43.29
2023-05-13T05:23:07.407Z,43.89
2023-05-13T05:24:02.949Z,43.81
2023-05-13T05:24:58.479Z,43.51
2023-05-13T05:26:00.870Z,43.51
2023-05-13T05:26:49.572Z,43.38
2023-05-13T05:27:45.105Z,43.18
2023-05-13T05:28:40.663Z,43.18
2023-05-13T05:29:36.194Z,43.99
2023-05-13T05:30:31.719Z,44.09
2023-05-13T05:31:27.298Z,44.29
2023-05-13T05:32:22.838Z,43.38
2023-05-13T05:33:18.340Z,42.88
2023-05-13T05:34:13.903Z,42.68
2023-05-13T05:35:09.434Z,43.59
2023-05-13T05:36:04.952Z,42.98
2023-05-13T05:37:00.497Z,42.88
2023-05-13T05:37:56.066Z,42.98
2023-05-13T05:38:51.602Z,42.98
2023-05-13T05:39:47.152Z,42.88
2023-05-13T05:40:42.698Z,42.78
2023-05-13T05:41:38.240Z,43.38
2023-05-13T05:42:33.790Z,43.16
2023-05-13T05:43:29.345Z,43.46
2023-05-13T05:44:24.910Z,43.57
2023-05-13T05:45:20.475Z,43.16
2023-05-13T05:46:16.031Z,42.58
2023-05-13T05:47:11.535Z,42.86
2023-05-13T05:47:56.253Z,42.58
2023-05-13T05:48:51.735Z,42.76
2023-05-13T05:49:47.282Z,42.55
2023-05-13T05:50:42.822Z,42.66
2023-05-13T05:51:38.365Z,43.16
2023-05-13T05:52:23.028Z,42.35
2023-05-13T05:53:18.610Z,42.76
2023-05-13T05:54:14.136Z,42.13
2023-05-13T05:55:09.666Z,42.25
2023-05-13T05:56:05.199Z,42.25
2023-05-13T05:57:00.749Z,42.46
2023-05-13T05:57:56.281Z,42.46
2023-05-13T05:58:51.832Z,41.95
2023-05-13T05:59:47.360Z,43.06
2023-05-13T06:00:42.910Z,42.66
2023-05-13T06:01:38.464Z,42.46
2023-05-13T06:02:34.069Z,41.42
2023-05-13T06:03:29.676Z,42.33
2023-05-13T06:04:25.169Z,41.93
2023-05-13T06:05:20.659Z,41.83
2023-05-13T06:06:16.198Z,41.83
2023-05-13T06:07:11.820Z,42.13
2023-05-13T06:08:07.278Z,41.83
2023-05-13T06:09:02.806Z,41.20
2023-05-13T06:09:58.353Z,40.92
2023-05-13T06:10:53.904Z,41.32
2023-05-13T06:11:49.438Z,41.63
2023-05-13T06:12:44.969Z,41.81
2023-05-13T06:13:40.500Z,42.11
2023-05-13T06:14:36.050Z,41.63
2023-05-13T06:15:31.578Z,41.00
2023-05-13T06:16:27.269Z,42.11
2023-05-13T06:17:22.830Z,41.61
2023-05-13T06:18:18.210Z,41.99
2023-05-13T06:19:13.891Z,41.61
2023-05-13T06:20:09.887Z,40.88
2023-05-13T06:21:05.460Z,41.59
2023-05-13T06:22:03.230Z,41.18
2023-05-13T06:22:56.526Z,40.86
2023-05-13T06:23:52.066Z,40.66
2023-05-13T06:24:47.603Z,40.66
2023-05-13T06:25:43.165Z,41.27
2023-05-13T06:26:38.684Z,40.54
2023-05-13T06:27:34.222Z,40.23
2023-05-13T06:28:29.771Z,40.64
2023-05-13T06:29:25.364Z,40.64
2023-05-13T06:30:21.231Z,40.23
2023-05-13T06:31:16.498Z,40.42
2023-05-13T06:32:12.030Z,40.12
2023-05-13T06:33:07.632Z,39.72
2023-05-13T06:34:03.110Z,39.90
2023-05-13T06:34:58.670Z,39.70
2023-05-13T06:35:54.201Z,39.78
2023-05-13T06:36:38.883Z,39.17
2023-05-13T06:37:34.433Z,39.25
2023-05-13T06:38:29.977Z,39.45
2023-05-13T06:39:25.505Z,39.14
2023-05-13T06:40:21.204Z,38.51
2023-05-13T06:41:17.607Z,38.62
2023-05-13T06:42:14.291Z,38.51
2023-05-13T06:43:08.723Z,37.69
2023-05-13T06:44:04.280Z,38.20
2023-05-13T06:44:59.828Z,38.20
2023-05-13T06:45:55.366Z,38.20
2023-05-13T06:46:50.952Z,37.79
2023-05-13T06:47:46.496Z,37.39
2023-05-13T06:48:42.003Z,37.59
2023-05-13T06:49:37.532Z,37.39
2023-05-13T06:50:33.090Z,37.39
2023-05-13T06:51:28.621Z,37.17
2023-05-13T06:52:24.165Z,37.47
2023-05-13T06:53:19.697Z,36.15
2023-05-13T06:54:15.247Z,35.95
2023-05-13T06:54:59.929Z,35.55
2023-05-13T06:55:55.508Z,35.85
2023-05-13T06:56:40.177Z,36.43
2023-05-13T06:57:42.384Z,35.71
2023-05-13T06:58:31.263Z,35.01
2023-05-13T06:59:26.809Z,34.11
2023-05-13T07:00:22.743Z,34.39
2023-05-13T07:01:17.953Z,34.89
2023-05-13T07:02:13.415Z,35.18
2023-05-13T07:03:08.960Z,34.58
2023-05-13T07:03:53.719Z,33.47
2023-05-13T07:04:38.346Z,33.58
2023-05-13T07:05:33.901Z,34.78
2023-05-13T07:06:29.468Z,34.08
2023-05-13T07:07:25.002Z,33.98
2023-05-13T07:08:20.540Z,33.98
2023-05-13T07:09:16.060Z,34.26
2023-05-13T07:10:11.615Z,33.96
2023-05-13T07:11:07.149Z,33.86
2023-05-13T07:12:02.700Z,33.84
2023-05-13T07:12:58.234Z,33.96
2023-05-13T07:13:53.836Z,34.05
2023-05-13T07:14:49.393Z,34.24
2023-05-13T07:15:44.947Z,33.54
2023-05-13T07:16:40.527Z,33.33
2023-05-13T07:17:36.135Z,33.53
2023-05-13T07:18:31.678Z,33.23
2023-05-13T07:19:27.123Z,32.53
2023-05-13T07:20:23.158Z,32.51
2023-05-13T07:21:18.213Z,33.31
2023-05-13T07:22:13.772Z,33.51
2023-05-13T07:23:09.294Z,33.91
2023-05-13T07:23:53.979Z,32.79
2023-05-13T07:24:49.518Z,31.90
2023-05-13T07:25:45.059Z,30.99
2023-05-13T07:26:29.724Z,30.28
2023-05-13T07:27:14.395Z,30.58
2023-05-13T07:28:09.934Z,30.48
2023-05-13T07:29:05.476Z,30.28
2023-05-13T07:30:01.018Z,30.88
2023-05-13T07:30:56.615Z,28.98
2023-05-13T07:31:52.129Z,28.58
2023-05-13T07:32:47.704Z,28.68
2023-05-13T07:33:32.337Z,28.58
2023-05-13T07:34:27.884Z,28.08
2023-05-13T07:35:23.676Z,27.50
2023-05-13T07:36:18.988Z,27.39
2023-05-13T07:37:14.538Z,28.00
2023-05-13T07:38:10.125Z,28.30
2023-05-13T07:39:05.644Z,28.19
2023-05-13T07:40:01.184Z,27.89
2023-05-13T07:40:56.723Z,28.30
2023-05-13T07:41:52.266Z,28.28
2023-05-13T07:42:47.819Z,28.38
2023-05-13T07:43:43.370Z,28.78
2023-05-13T07:44:38.915Z,27.68
2023-05-13T07:45:34.471Z,27.50
2023-05-13T07:46:30.044Z,26.70
2023-05-13T07:47:25.568Z,27.09
2023-05-13T07:48:21.096Z,27.58
2023-05-13T07:49:28.167Z,27.20
2023-05-13T07:50:23.727Z,26.70
2023-05-13T07:51:19.280Z,26.29
2023-05-13T07:52:14.795Z,27.09
2023-05-13T07:53:10.340Z,27.11
2023-05-13T07:54:05.924Z,27.31
2023-05-13T07:55:01.441Z,26.91
2023-05-13T07:55:56.972Z,27.31
2023-05-13T07:56:52.531Z,28.21
2023-05-13T07:57:48.068Z,28.39
2023-05-13T07:58:43.621Z,27.80
2023-05-13T07:59:28.286Z,27.80
2023-05-13T08:00:23.879Z,27.80
2023-05-13T08:01:19.380Z,28.30
2023-05-13T08:02:15.976Z,27.21
2023-05-13T08:03:11.606Z,27.91
2023-05-13T08:04:07.267Z,27.81
2023-05-13T08:05:02.687Z,28.21
2023-05-13T08:05:58.184Z,27.81
2023-05-13T08:06:53.729Z,27.81
2023-05-13T08:07:49.268Z,27.71
2023-05-13T08:08:44.861Z,28.41
2023-05-13T08:09:40.396Z,28.11
2023-05-13T08:10:35.928Z,28.01
2023-05-13T08:11:31.472Z,28.41
2023-05-13T08:12:27.027Z,27.81
2023-05-13T08:13:22.575Z,28.81
2023-05-13T08:14:18.115Z,28.61
2023-05-13T08:15:13.670Z,29.11
2023-05-13T08:16:09.289Z,28.50
2023-05-13T08:17:04.780Z,28.31
2023-05-13T08:18:00.378Z,28.31
2023-05-13T08:18:55.903Z,29.60
2023-05-13T08:19:51.409Z,28.59
2023-05-13T08:20:46.937Z,28.81
2023-05-13T08:21:42.496Z,28.69
2023-05-13T08:22:38.030Z,29.00
2023-05-13T08:23:44.129Z,28.11
2023-05-13T08:24:29.114Z,27.71
2023-05-13T08:25:24.674Z,28.01
2023-05-13T08:26:20.198Z,28.41
2023-05-13T08:27:04.861Z,28.30
2023-05-13T08:28:00.404Z,29.00
2023-05-13T08:28:55.943Z,28.39
2023-05-13T08:29:51.519Z,28.39
2023-05-13T08:30:47.073Z,28.30
2023-05-13T08:31:42.727Z,28.30
2023-05-13T08:32:38.212Z,29.00
2023-05-13T08:33:33.728Z,28.69
2023-05-13T08:34:29.260Z,28.78
2023-05-13T08:35:24.960Z,28.78
2023-05-13T08:36:20.368Z,28.58
2023-05-13T08:37:15.910Z,28.28
2023-05-13T08:38:11.460Z,28.27
2023-05-13T08:39:07.088Z,27.97
2023-05-13T08:40:02.617Z,28.57
2023-05-13T08:40:58.277Z,28.17
2023-05-13T08:41:53.757Z,29.17
2023-05-13T08:42:49.345Z,29.25
2023-05-13T08:43:44.861Z,29.05
2023-05-13T08:44:40.419Z,29.04
2023-05-13T08:45:35.974Z,28.03
2023-05-13T08:46:31.661Z,27.83
2023-05-13T08:47:27.084Z,27.53
2023-05-13T08:48:11.770Z,28.33
2023-05-13T08:49:07.291Z,28.22
2023-05-13T08:50:02.929Z,28.10
2023-05-13T08:50:58.448Z,28.00
2023-05-13T08:51:53.984Z,28.19
2023-05-13T08:52:49.556Z,27.89
2023-05-13T08:53:45.687Z,28.47
2023-05-13T08:54:41.237Z,27.76
2023-05-13T08:55:36.777Z,27.66
2023-05-13T08:56:32.345Z,27.45
2023-05-13T08:57:27.864Z,27.05
2023-05-13T08:58:24.008Z,26.94
2023-05-13T08:59:19.560Z,28.12
2023-05-13T09:00:15.108Z,27.01
2023-05-13T09:01:10.680Z,26.02
2023-05-13T09:02:06.199Z,27.11
2023-05-13T09:03:01.771Z,26.10
2023-05-13T09:03:46.439Z,26.50
2023-05-13T09:04:42.014Z,25.30
2023-05-13T09:05:38.924Z,25.50
2023-05-13T09:06:33.071Z,25.39
2023-05-13T09:07:28.624Z,25.38
2023-05-13T09:08:24.186Z,25.38
2023-05-13T09:09:08.995Z,25.67
2023-05-13T09:10:04.552Z,25.46
2023-05-13T09:11:00.137Z,25.56
2023-05-13T09:11:55.702Z,24.77
2023-05-13T09:12:51.250Z,24.96
2023-05-13T09:13:47.379Z,25.44
2023-05-13T09:14:42.933Z,26.13
2023-05-13T09:15:38.522Z,25.03
2023-05-13T09:16:34.096Z,23.55
2023-05-13T09:17:29.589Z,23.55
2023-05-13T09:18:25.267Z,24.62
2023-05-13T09:19:20.845Z,24.11
2023-05-13T09:20:17.233Z,24.71
2023-05-13T09:21:12.795Z,22.92
2023-05-13T09:22:08.338Z,22.73
2023-05-13T09:23:03.902Z,22.72
2023-05-13T09:23:59.438Z,23.11
2023-05-13T09:24:54.981Z,22.81
2023-05-13T09:25:50.534Z,22.60
2023-05-13T09:26:46.108Z,21.32
2023-05-13T09:27:41.698Z,21.22
2023-05-13T09:28:37.192Z,22.69
2023-05-13T09:29:32.741Z,21.50
2023-05-13T09:30:28.290Z,21.39
2023-05-13T09:31:23.862Z,21.30
2023-05-13T09:32:19.434Z,21.78
2023-05-13T09:33:15.016Z,21.19
2023-05-13T09:34:10.502Z,21.29
2023-05-13T09:35:06.060Z,21.28
2023-05-13T09:35:50.756Z,21.26
2023-05-13T09:36:46.288Z,21.06
2023-05-13T09:37:41.880Z,20.57
2023-05-13T09:38:37.461Z,20.57
2023-05-13T09:39:34.054Z,20.85
2023-05-13T09:40:28.559Z,20.46
2023-05-13T09:41:24.117Z,20.84
2023-05-13T09:42:19.716Z,21.14
2023-05-13T09:43:15.258Z,18.88
2023-05-13T09:44:11.804Z,19.26
2023-05-13T09:45:07.357Z,19.94
2023-05-13T09:46:02.936Z,18.55
2023-05-13T09:46:58.574Z,19.93
2023-05-13T09:48:01.281Z,18.54
2023-05-13T09:48:57.116Z,18.15
2023-05-13T09:49:52.364Z,18.05
2023-05-13T09:50:37.038Z,16.68
2023-05-13T09:51:32.613Z,17.85
2023-05-13T09:52:28.137Z,15.60
2023-05-13T09:53:23.677Z,16.88
2023-05-13T09:54:19.223Z,18.15
2023-05-13T09:55:14.762Z,18.43
2023-05-13T09:56:10.316Z,18.32
2023-05-13T09:57:05.899Z,19.20
2023-05-13T09:58:01.419Z,18.30
2023-05-13T09:58:57.023Z,17.52
2023-05-13T09:59:52.511Z,18.00
2023-05-13T10:00:48.185Z,17.02
2023-05-13T10:01:43.737Z,16.83
2023-05-13T10:02:39.208Z,17.02
2023-05-13T10:03:34.746Z,16.34
2023-05-13T10:04:30.280Z,16.13
2023-05-13T10:05:25.830Z,17.21
2023-05-13T10:06:21.383Z,16.52
2023-05-13T10:07:16.919Z,16.13
2023-05-13T10:08:12.483Z,15.45
2023-05-13T10:09:08.019Z,15.16
2023-05-13T10:10:03.582Z,15.45
2023-05-13T10:10:59.130Z,15.73
2023-05-13T10:11:54.667Z,15.64
2023-05-13T10:12:50.213Z,14.95
2023-05-13T10:13:45.783Z,15.54
2023-05-13T10:14:41.348Z,15.53
2023-05-13T10:15:36.912Z,15.53
2023-05-13T10:16:32.522Z,16.31
2023-05-13T10:17:28.051Z,16.00
2023-05-13T10:18:23.602Z,16.09
2023-05-13T10:19:19.164Z,16.48
2023-05-13T10:20:14.664Z,15.12
2023-05-13T10:21:10.205Z,14.73
2023-05-13T10:22:05.766Z,15.50
2023-05-13T10:23:01.296Z,14.62
2023-05-13T10:23:56.842Z,14.53
2023-05-13T10:24:52.383Z,14.72
2023-05-13T10:25:47.933Z,14.23
2023-05-13T10:26:43.489Z,15.01
2023-05-13T10:27:39.058Z,15.88
2023-05-13T10:28:34.602Z,14.03
2023-05-13T10:29:30.156Z,15.11
2023-05-13T10:30:25.717Z,14.03
2023-05-13T10:31:21.305Z,13.84
2023-05-13T10:32:16.825Z,13.93
2023-05-13T10:33:12.415Z,13.35
2023-05-13T10:34:07.897Z,14.51
2023-05-13T10:35:03.446Z,14.03
2023-05-13T10:35:59.000Z,14.70
2023-05-13T10:36:54.541Z,14.51
2023-05-13T10:37:50.097Z,14.30
2023-05-13T10:38:45.678Z,14.78
2023-05-13T10:39:41.230Z,15.45
2023-05-13T10:40:36.789Z,13.33
2023-05-13T10:41:32.329Z,13.33
2023-05-13T10:42:27.893Z,13.53
2023-05-13T10:43:23.435Z,13.72
2023-05-13T10:44:18.980Z,13.42
2023-05-13T10:45:14.569Z,13.52
2023-05-13T10:46:10.171Z,13.32
2023-05-13T10:47:05.698Z,12.93
2023-05-13T10:48:01.222Z,14.09
2023-05-13T10:48:56.752Z,13.51
2023-05-13T10:49:52.311Z,12.34
2023-05-13T10:50:47.847Z,12.63
2023-05-13T10:51:43.405Z,11.86
2023-05-13T10:52:38.955Z,12.25
2023-05-13T10:53:34.514Z,12.25
2023-05-13T10:54:30.068Z,12.83
2023-05-13T10:55:25.668Z,12.25
2023-05-13T10:56:21.224Z,12.83
2023-05-13T10:57:18.310Z,12.45
2023-05-13T10:58:12.406Z,13.02
2023-05-13T10:59:07.869Z,12.06
2023-05-13T11:00:03.919Z,12.07
2023-05-13T11:00:59.484Z,12.35
2023-05-13T11:01:55.079Z,12.83
2023-05-13T11:02:50.647Z,12.92
2023-05-13T11:03:46.194Z,12.05
2023-05-13T11:04:41.689Z,12.53
2023-05-13T11:05:37.239Z,12.44
2023-05-13T11:06:32.830Z,11.96
2023-05-13T11:07:28.375Z,12.26
2023-05-13T11:08:23.938Z,12.73
2023-05-13T11:09:19.526Z,12.24
2023-05-13T11:10:15.262Z,12.15
2023-05-13T11:11:10.608Z,12.62
2023-05-13T11:12:06.173Z,12.92
2023-05-13T11:13:01.729Z,12.62
2023-05-13T11:13:57.698Z,12.43
2023-05-13T11:14:52.830Z,12.62
2023-05-13T11:15:48.425Z,12.71
2023-05-13T11:16:44.084Z,12.61
2023-05-13T11:17:39.661Z,12.41
2023-05-13T11:18:35.184Z,12.23
2023-05-13T11:19:30.692Z,12.23
2023-05-13T11:20:26.242Z,12.62
2023-05-13T11:21:21.797Z,11.85
2023-05-13T11:22:06.495Z,11.94
2023-05-13T11:23:02.054Z,10.78
2023-05-13T11:23:57.605Z,12.33
2023-05-13T11:24:53.149Z,12.32
2023-05-13T11:25:48.692Z,12.03
2023-05-13T11:26:44.243Z,12.23
2023-05-13T11:27:39.793Z,12.23
2023-05-13T11:28:35.343Z,12.43
2023-05-13T11:29:30.923Z,12.71
2023-05-13T11:30:26.444Z,12.24
2023-05-13T11:31:22.026Z,12.15
2023-05-13T11:32:17.569Z,11.85
2023-05-13T11:33:13.132Z,12.62
2023-05-13T11:34:08.657Z,11.85
2023-05-13T11:35:04.214Z,12.52
2023-05-13T11:35:59.759Z,12.33
2023-05-13T11:36:55.329Z,11.85
2023-05-13T11:37:50.867Z,12.43
2023-05-13T11:38:46.419Z,12.24
2023-05-13T11:39:41.994Z,12.24
2023-05-13T11:40:37.529Z,11.38
2023-05-13T11:41:33.110Z,12.25
2023-05-13T11:42:28.630Z,12.15
2023-05-13T11:43:24.182Z,12.05
2023-05-13T11:44:19.753Z,11.94
2023-05-13T11:45:15.273Z,12.52
2023-05-13T11:46:10.920Z,12.13
2023-05-13T11:47:06.381Z,11.94
2023-05-13T11:48:01.974Z,11.95
2023-05-13T11:48:57.516Z,12.34
2023-05-13T11:49:53.038Z,12.53